Historyczne dane pomiarowe

Dodano dane terminowe – wersja testowa.

Dane z okresu 1951-2019

Wersja bazy: 1.34 [2019-03-16, lista zmian], aktualizacja planowana na 2019-04-15

Dane meteo z obszaru Polski uzyskane na podstawie danych udostępnionych przez Instytut Meteorologii i Gospodarki Wodnej – Państwowy Instytut Badawczy.

 

Wybierz Datę:    

       

TemperaturaWilgotnośćWiatrCiśnienieOpadyŚniegCzas trwania zjawisk
 Stacja t tx tn tng RH VA  wxwx mslp ppp RRR   cm mm wxwxwxwxwxwxwx
1999-08-14 14.4 20.2 8.1--- 3.0 3.7---- 0.0------------
1999-08-13 14.2 20.2 8.1--- 5.0 2.7---- 0.0------------
1999-08-12 16.0 19.6 13.6--- 5.7 3.3---- 0.0------------
1999-08-11 19.7 24.0 16.3--- 5.0 3.0---- 0.3------------
1999-08-10 20.3 28.7 12.0--- 5.0 2.3---- 6.6------------
1999-08-09 23.2 30.0 16.8--- 4.0 2.3---- 0.0------------
1999-08-08 22.7 28.3 17.2--- 5.3 2.3---- 0.0------------
1999-08-07 20.0 28.0 12.7--- 2.0 0.7---- 0.0------------
1999-08-06 18.1 24.2 12.6--- 5.7 1.7---- 0.0------------
1999-08-05 18.1 25.0 10.2--- 2.3 1.7---- 0.2------------
1999-08-04 16.9 24.7 7.6--- 2.3 1.3---- 0.0------------
1999-08-03 17.9 24.9 11.2--- 5.3 2.0---- 0.0------------
1999-08-02 17.1 23.5 11.1--- 6.0 2.0---- 0.0------------
1999-08-01 16.9 23.7 10.7--- 5.0 1.3---- 0.0------------
1999-07-31 17.3 25.5 9.0--- 3.7 1.0---- 0.0------------
1999-07-30 17.6 24.3 10.8--- 1.7 1.0---- 0.0------------
1999-07-29 17.3 23.3 10.9--- 3.7 3.3---- 0.0------------
1999-07-28 17.2 23.6 13.1--- 3.7 2.7---- 0.0------------
1999-07-27 17.9 22.3 15.2--- 6.0 2.3---- 0.0------------
1999-07-26 19.2 26.7 10.4--- 5.0 1.3---- 0.0------------
1999-07-25 17.7 23.7 10.5--- 2.0 1.0---- 0.0------------
1999-07-24 16.0 20.8 10.4--- 6.3 2.0---- 0.0------------
1999-07-23 14.6 18.6 11.7--- 8.0 2.3---- 6.9------------
1999-07-22 19.8 23.8 17.1--- 6.0 3.0---- 2.1------------
1999-07-21 21.5 27.6 12.9--- 4.3 2.3---- 0.0------------
1999-07-20 21.2 28.2 12.5--- 2.0 1.3---- 0.0------------
1999-07-19 19.6 26.8 12.0--- 5.7 2.0---- 0.0------------
1999-07-18 16.9 24.4 8.7--- 5.7 0.7---- 0.0------------
1999-07-17 15.4 21.7 7.7--- 3.0 2.3---- 0.0------------
1999-07-16 14.9 19.9 9.4--- 5.0 2.7---- 10.8------------
1999-07-15 16.6 20.7 14.2--- 5.3 2.3---- 0.7------------
1999-07-14 19.8 26.3 16.6--- 6.0 3.0---- 6.0------------
1999-07-13 19.7 25.3 14.1--- 6.7 2.0---- 12.8------------
1999-07-12 20.3 26.9 13.9--- 5.3 3.7---- 0.0------------
1999-07-11 19.2 25.3 11.9--- 3.7 3.0---- 0.0------------
1999-07-10 19.5 24.3 15.1--- 5.3 5.0---- 0.0------------
1999-07-09 19.7 23.3 16.5--- 6.0 4.0---- 0.0------------
1999-07-08 18.6 21.6 16.3--- 8.0 5.7---- 0.8------------
1999-07-07 21.6 25.1 18.9--- 6.7 4.3---- 19.4------------
1999-07-06 23.5 30.6 15.7--- 2.3 1.3---- 0.0------------
1999-07-05 22.9 30.5 12.6--- 1.3 1.7---- 0.0------------
1999-07-04 21.1 28.8 10.7--- 0.7 1.3---- 0.0------------
1999-07-03 19.8 25.3 13.2--- 4.0 1.3---- 0.0------------
1999-07-02 19.6 24.2 14.7--- 4.3 3.3---- 0.0------------
1999-07-01 18.6 24.7 9.7--- 3.0 1.3---- 0.0------------
1999-06-30 18.2 24.3 11.2--- 3.3 2.3---- 0.0------------
1999-06-29 18.4 24.2 13.7--- 5.3 4.3---- 0.0------------
1999-06-28 19.2 26.6 9.7--- 2.3 3.0---- 0.0------------
1999-06-27 18.9 24.8 11.4--- 0.7 2.3---- 0.0------------
1999-06-26 14.4 22.5 5.0--- 4.7 2.0---- 0.0------------
1999-06-25 13.0 17.3 9.1--- 5.3 2.3---- 0.2------------
1999-06-24 11.0 12.8 8.8--- 7.3 2.0---- 4.6------------
1999-06-23 9.5 10.7 7.6--- 8.0 4.7---- 9.2------------
1999-06-22 13.0 16.8 10.0--- 8.0 5.7---- 29.5------------
1999-06-21 17.6 23.6 14.2--- 7.3 1.3---- 3.8------------
1999-06-20 17.8 21.6 13.7--- 5.0 2.7---- 8.5------------
1999-06-19 17.9 23.8 13.6--- 5.0 2.7---- 0.0------------
1999-06-18 17.4 18.8 16.1--- 8.0 2.3---- 2.2------------
1999-06-17 19.0 22.9 16.2--- 7.7 0.7---- 21.8------------
1999-06-16 18.2 21.8 15.4--- 7.3 3.3---- 5.5------------
1117.7 ms

 

Źródłem pochodzenia danych jest Instytut Meteorologii i Gospodarki Wodnej – Państwowy Instytut Badawczy. Dane Instytutu Meteorologii i Gospodarki Wodnej – Państwowego Instytutu Badawczego zostały przetworzone.

Dane źródłowe można odnaleźć na stronie https://dane.imgw.pl